Time;durP1;ratioP1;P1;durP2;ratioP2;P2;SDS_P1;SDS_P2;PMS_P1;PMS_P2;Temp;Humidity;BMP_temperature;BMP_pressure;BME280_temperature;BME280_humidity;BME280_pressure;Samples;Min_cycle;Max_cycle;Signal;HPM_P1;HPM_P2
2023/01/15 00:02:11;;;;;;;16.30;8.30;;;;;;;5.59;84.22;99948.77;105104;1257;98399;-74
2023/01/15 00:04:57;;;;;;;16.20;7.70;;;;;;;5.57;84.24;99947.00;105188;1257;102798;-75
2023/01/15 00:07:43;;;;;;;18.40;7.80;;;;;;;5.57;84.08;99945.48;105101;1262;100316;-76
2023/01/15 00:10:28;;;;;;;14.60;7.90;;;;;;;5.56;83.81;99936.71;105134;1257;97968;-75
2023/01/15 00:13:14;;;;;;;15.70;7.70;;;;;;;5.55;83.95;99928.15;105099;1257;98020;-76
2023/01/15 00:16:09;;;;;;;15.10;7.80;;;;;;;5.54;83.75;99921.28;105103;1261;98621;-75
2023/01/15 00:18:57;;;;;;;14.70;7.40;;;;;;;5.54;83.79;99914.60;105141;1257;102721;-75
2023/01/15 00:21:43;;;;;;;14.20;7.10;;;;;;;5.53;83.63;99908.30;105138;1263;99227;-76
2023/01/15 00:27:39;;;;;;;15.70;8.20;;;;;;;5.51;83.68;99899.35;105049;1262;98763;-74
2023/01/15 00:30:24;;;;;;;15.60;7.40;;;;;;;5.51;83.35;99898.34;105043;1257;98515;-74
2023/01/15 00:33:10;;;;;;;17.30;7.40;;;;;;;5.49;83.41;99886.92;105007;1261;102661;-74
2023/01/15 00:35:56;;;;;;;17.90;8.40;;;;;;;5.48;83.08;99875.55;105062;1259;100049;-75
2023/01/15 00:38:41;;;;;;;19.20;8.20;;;;;;;5.48;82.96;99868.70;105066;1263;100092;-75
2023/01/15 00:41:27;;;;;;;14.20;7.80;;;;;;;5.47;83.08;99861.54;105371;1261;98042;-75
2023/01/15 00:44:12;;;;;;;16.40;7.50;;;;;;;5.47;82.92;99857.59;105358;1263;97855;-76
2023/01/15 00:46:58;;;;;;;17.00;8.30;;;;;;;5.47;82.90;99857.41;105076;1263;101280;-75
2023/01/15 00:49:44;;;;;;;13.80;7.20;;;;;;;5.47;82.70;99853.69;105156;1260;100257;-75
2023/01/15 00:52:30;;;;;;;14.80;7.70;;;;;;;5.48;82.46;99851.10;105095;1262;98992;-74
2023/01/15 00:55:15;;;;;;;18.00;8.40;;;;;;;5.50;82.25;99848.85;105051;1259;98061;-75
2023/01/15 00:58:01;;;;;;;15.70;7.20;;;;;;;5.52;82.29;99846.68;105146;1260;98573;-75
2023/01/15 01:00:46;;;;;;;15.20;7.50;;;;;;;5.54;82.33;99840.26;105029;1257;101368;-74
2023/01/15 01:03:33;;;;;;;23.10;12.30;;;;;;;5.54;82.02;99839.86;105177;1262;100323;-75
2023/01/15 01:06:20;;;;;;;22.50;13.50;;;;;;;5.55;82.14;99842.25;105056;1262;99050;-74
2023/01/15 01:09:05;;;;;;;19.80;9.50;;;;;;;5.55;82.14;99835.48;105142;1259;98027;-75
2023/01/15 01:11:51;;;;;;;15.70;8.10;;;;;;;5.56;81.91;99837.94;105211;1259;99197;-74
2023/01/15 01:14:37;;;;;;;17.80;7.90;;;;;;;5.56;81.72;99835.73;105156;1261;102566;-74
2023/01/15 01:17:23;;;;;;;15.60;7.30;;;;;;;5.56;81.57;99827.92;105205;1257;99331;-75
2023/01/15 01:20:14;;;;;;;16.80;8.40;;;;;;;5.58;81.54;99826.98;105041;1261;99439;-75
2023/01/15 01:23:00;;;;;;;15.20;8.30;;;;;;;5.59;81.45;99815.77;105010;1260;97892;-74
2023/01/15 01:25:45;;;;;;;16.30;8.20;;;;;;;5.59;81.26;99822.41;105023;1264;98058;-76
2023/01/15 01:28:31;;;;;;;12.50;7.00;;;;;;;5.60;81.67;99815.23;105120;1263;102586;-75
2023/01/15 01:31:18;;;;;;;14.90;7.30;;;;;;;5.62;81.52;99805.83;105085;1258;99084;-74
2023/01/15 01:34:03;;;;;;;14.50;7.30;;;;;;;5.63;81.49;99798.94;105178;1264;99240;-73
2023/01/15 01:36:49;;;;;;;14.80;7.60;;;;;;;5.64;81.51;99788.77;105209;1262;97989;-75
2023/01/15 01:39:34;;;;;;;16.20;8.30;;;;;;;5.65;81.12;99785.31;104999;1257;98743;-75
2023/01/15 01:42:20;;;;;;;13.90;7.30;;;;;;;5.65;81.11;99779.08;105177;1258;102543;-75
2023/01/15 01:45:31;;;;;;;15.90;8.00;;;;;;;5.65;81.07;99766.14;105162;1261;99092;-75
2023/01/15 01:48:20;;;;;;;16.70;7.80;;;;;;;5.64;80.70;99753.84;105041;1257;98920;-75
2023/01/15 01:51:05;;;;;;;17.40;7.50;;;;;;;5.63;80.88;99757.54;105027;1260;97965;-75
2023/01/15 01:53:51;;;;;;;18.60;8.10;;;;;;;5.61;80.82;99765.02;105137;1257;98432;-75
2023/01/15 01:56:37;;;;;;;13.10;6.90;;;;;;;5.60;80.40;99759.02;105111;1260;101384;-76
2023/01/15 01:59:25;;;;;;;15.90;8.10;;;;;;;5.61;80.54;99764.06;105051;1257;100848;-75
2023/01/15 02:02:13;;;;;;;13.40;7.30;;;;;;;5.61;80.56;99767.65;105099;1262;98083;-74
2023/01/15 02:04:59;;;;;;;14.50;7.50;;;;;;;5.62;80.41;99773.79;105132;1258;97965;-76
2023/01/15 02:07:46;;;;;;;17.60;8.30;;;;;;;5.61;80.58;99762.00;105128;1257;98477;-74
2023/01/15 02:10:32;;;;;;;17.70;8.60;;;;;;;5.61;80.33;99772.70;105056;1261;101354;-74
2023/01/15 02:13:22;;;;;;;14.30;7.60;;;;;;;5.61;80.36;99767.84;105141;1258;100500;-76
2023/01/15 02:16:20;;;;;;;15.90;7.20;;;;;;;5.62;80.43;99758.04;105131;1259;99076;-76
2023/01/15 02:19:51;;;;;;;12.80;6.90;;;;;;;5.62;80.41;99758.17;105163;1258;97968;-75
2023/01/15 02:22:58;;;;;;;12.80;7.30;;;;;;;5.63;80.38;99748.13;104923;1264;98537;-75
2023/01/15 02:26:16;;;;;;;14.80;6.60;;;;;;;5.64;80.41;99747.70;105137;1257;101352;-75
2023/01/15 02:29:07;;;;;;;14.70;7.90;;;;;;;5.65;80.32;99737.45;104895;1264;99824;-75
2023/01/15 02:31:52;;;;;;;12.70;6.60;;;;;;;5.66;80.18;99733.80;104992;1259;98564;-75
2023/01/15 02:34:45;;;;;;;15.10;6.50;;;;;;;5.67;80.14;99736.72;105037;1259;99265;-76
2023/01/15 02:37:36;;;;;;;13.10;6.30;;;;;;;5.67;80.21;99715.79;105227;1264;97886;-76
2023/01/15 02:40:25;;;;;;;14.50;5.90;;;;;;;5.67;80.04;99686.93;105188;1264;102640;-76
2023/01/15 02:43:13;;;;;;;12.70;6.70;;;;;;;5.66;79.93;99666.02;104948;1258;99121;-73
2023/01/15 02:46:03;;;;;;;12.80;5.60;;;;;;;5.64;79.68;99670.30;105090;1262;98008;-74
2023/01/15 02:48:51;;;;;;;12.30;7.00;;;;;;;5.64;79.78;99674.23;105113;1262;98079;-75
2023/01/15 02:51:54;;;;;;;12.20;6.00;;;;;;;5.64;79.56;99663.88;105099;1264;99590;-74
2023/01/15 02:54:48;;;;;;;14.00;6.30;;;;;;;5.65;79.71;99654.31;105136;1257;101318;-74
2023/01/15 02:57:37;;;;;;;13.20;6.50;;;;;;;5.65;79.54;99662.74;105194;1256;99318;-74
2023/01/15 03:00:25;;;;;;;11.60;5.70;;;;;;;5.66;79.47;99659.08;104998;1258;99140;-74
2023/01/15 03:03:52;;;;;;;11.80;5.40;;;;;;;5.67;79.65;99665.17;104987;1263;97923;-75
2023/01/15 03:06:42;;;;;;;13.00;6.30;;;;;;;5.66;79.67;99666.11;105013;1261;97881;-75
2023/01/15 03:09:30;;;;;;;12.10;5.50;;;;;;;5.66;79.57;99680.63;105069;1262;102608;-75
2023/01/15 03:12:25;;;;;;;10.60;5.80;;;;;;;5.67;79.43;99679.52;105091;1259;99075;-75
2023/01/15 03:16:33;;;;;;;11.40;6.30;;;;;;;5.67;79.31;99664.60;105084;1264;98006;-74
2023/01/15 03:18:31;;;;;;;12.20;5.50;;;;;;;5.68;79.18;99650.02;105092;1264;97958;-76
2023/01/15 03:21:22;;;;;;;13.00;4.80;;;;;;;5.69;79.13;99635.89;105019;1258;98921;-74
2023/01/15 03:24:10;;;;;;;10.00;5.10;;;;;;;5.68;79.05;99631.58;105028;1263;102607;-75
2023/01/15 03:26:56;;;;;;;13.00;5.40;;;;;;;5.68;78.88;99637.25;105152;1260;109235;-74
2023/01/15 03:29:50;;;;;;;10.10;5.20;;;;;;;5.68;78.66;99629.62;105079;1264;98447;-75
2023/01/15 03:32:38;;;;;;;8.40;4.60;;;;;;;5.68;78.63;99615.63;105128;1259;99209;-75
2023/01/15 03:35:48;;;;;;;12.20;5.80;;;;;;;5.69;78.54;99619.41;104999;1261;98415;-75
2023/01/15 03:38:45;;;;;;;11.40;4.60;;;;;;;5.69;78.41;99623.98;105010;1262;102134;-76
2023/01/15 03:41:53;;;;;;;9.70;4.20;;;;;;;5.70;78.52;99619.64;105235;1261;100787;-75
2023/01/15 03:45:16;;;;;;;10.90;4.90;;;;;;;5.73;78.47;99621.80;105195;1261;98980;-76
2023/01/15 03:48:41;;;;;;;11.50;4.60;;;;;;;5.75;78.28;99624.36;105220;1263;99144;-76
2023/01/15 03:51:54;;;;;;;7.70;4.20;;;;;;;5.77;78.13;99611.40;105279;1262;99190;-76
2023/01/15 03:54:48;;;;;;;8.30;4.10;;;;;;;5.78;78.15;99608.92;105123;1257;101340;-76
2023/01/15 03:57:46;;;;;;;6.90;4.20;;;;;;;5.80;78.02;99605.16;105064;1261;99071;-74
2023/01/15 04:00:40;;;;;;;6.40;3.30;;;;;;;5.83;78.00;99599.20;105125;1257;98680;-75
2023/01/15 04:03:29;;;;;;;7.40;4.00;;;;;;;5.85;77.63;99591.45;105213;1260;97976;-74
2023/01/15 04:06:17;;;;;;;8.10;4.30;;;;;;;5.88;77.53;99570.92;105320;1259;97884;-75
2023/01/15 04:09:06;;;;;;;9.50;5.00;;;;;;;5.91;77.41;99565.25;105048;1257;101377;-75
2023/01/15 04:11:52;;;;;;;11.40;4.30;;;;;;;5.92;77.34;99560.89;105033;1263;100524;-75
2023/01/15 04:14:37;;;;;;;9.00;4.50;;;;;;;5.92;77.11;99546.20;105102;1261;99209;-74
2023/01/15 04:17:29;;;;;;;7.80;3.80;;;;;;;5.92;77.02;99544.58;105208;1264;97915;-75
2023/01/15 04:20:15;;;;;;;8.30;3.80;;;;;;;5.91;76.84;99522.06;105248;1258;98447;-75
2023/01/15 04:23:03;;;;;;;9.30;4.50;;;;;;;5.89;76.80;99515.67;105059;1258;101368;-75
2023/01/15 04:25:48;;;;;;;7.60;4.30;;;;;;;5.89;76.80;99533.81;105114;1259;99667;-75
2023/01/15 04:28:34;;;;;;;7.50;4.20;;;;;;;5.88;76.74;99534.59;105080;1261;99286;-74
2023/01/15 04:31:20;;;;;;;8.10;4.30;;;;;;;5.87;76.74;99523.73;105097;1258;97984;-74
2023/01/15 04:34:05;;;;;;;8.70;4.10;;;;;;;5.86;76.94;99524.66;105065;1261;97975;-74
2023/01/15 04:36:51;;;;;;;6.80;3.90;;;;;;;5.86;77.01;99518.70;104970;1257;102285;-77
2023/01/15 04:39:36;;;;;;;7.80;4.20;;;;;;;5.85;77.03;99511.21;105058;1260;100290;-75
2023/01/15 04:45:27;;;;;;;7.30;4.20;;;;;;;5.87;76.56;99503.05;105143;1257;99174;-75
2023/01/15 04:48:13;;;;;;;7.50;4.20;;;;;;;5.88;76.66;99504.49;105064;1261;98613;-75
2023/01/15 04:51:03;;;;;;;7.20;3.90;;;;;;;5.89;76.53;99506.65;105148;1259;102053;-74
2023/01/15 04:53:49;;;;;;;7.30;4.10;;;;;;;5.90;76.62;99507.71;104923;1263;100335;-74
2023/01/15 04:56:49;;;;;;;9.30;3.40;;;;;;;5.90;76.50;99500.48;105111;1261;98980;-77
2023/01/15 04:59:35;;;;;;;6.70;4.30;;;;;;;5.91;76.76;99491.04;105051;1258;98086;-75
2023/01/15 05:02:21;;;;;;;7.50;3.90;;;;;;;5.90;76.60;99488.98;105111;1261;99260;-76
2023/01/15 05:05:07;;;;;;;9.60;3.70;;;;;;;5.90;76.50;99485.52;105134;1264;101270;-74
2023/01/15 05:07:52;;;;;;;5.60;3.60;;;;;;;5.90;76.58;99483.38;105015;1258;100052;-76
2023/01/15 05:10:38;;;;;;;9.80;4.10;;;;;;;5.90;76.81;99486.66;105129;1258;98664;-75
2023/01/15 05:13:23;;;;;;;7.80;4.50;;;;;;;5.90;76.79;99487.23;105250;1261;98025;-76
2023/01/15 05:16:17;;;;;;;7.20;3.90;;;;;;;5.90;76.65;99485.42;105061;1258;98422;-75
2023/01/15 05:19:06;;;;;;;6.60;4.00;;;;;;;5.92;76.82;99484.46;104843;1258;102273;-75
2023/01/15 05:21:52;;;;;;;6.70;3.60;;;;;;;5.94;77.00;99480.38;104989;1259;100484;-75
2023/01/15 05:24:37;;;;;;;8.00;4.30;;;;;;;5.95;76.69;99480.05;105081;1261;99887;-77
2023/01/15 05:27:23;;;;;;;6.10;3.20;;;;;;;5.98;76.62;99477.44;105108;1259;97862;-76
2023/01/15 05:30:09;;;;;;;6.40;4.00;;;;;;;6.00;76.89;99472.27;105112;1258;98625;-75
2023/01/15 05:32:55;;;;;;;6.00;3.30;;;;;;;6.03;76.85;99467.36;105091;1260;101339;-75
2023/01/15 05:35:40;;;;;;;7.90;3.60;;;;;;;6.05;76.69;99467.84;105057;1263;100450;-75
2023/01/15 05:38:26;;;;;;;10.00;4.40;;;;;;;6.07;76.71;99472.93;105020;1257;97956;-75
2023/01/15 05:44:24;;;;;;;8.00;4.20;;;;;;;6.09;76.95;99458.12;105133;1258;98499;-76
2023/01/15 05:47:09;;;;;;;;;;;;;;;6.10;77.06;99458.20;105067;1262;102069;-76
2023/01/15 05:49:55;;;;;;;7.20;3.60;;;;;;;6.08;77.17;99455.56;105147;1259;99807;-75
2023/01/15 05:52:40;;;;;;;5.20;3.00;;;;;;;6.08;77.06;99449.52;105074;1258;97972;-74
2023/01/15 05:55:26;;;;;;;6.90;3.30;;;;;;;6.09;77.38;99448.34;105079;1264;99246;-76
2023/01/15 05:58:12;;;;;;;7.90;3.80;;;;;;;6.10;77.57;99445.20;105034;1263;97994;-76
2023/01/15 06:00:57;;;;;;;9.00;3.70;;;;;;;6.10;77.95;99436.94;105149;1259;102399;-75
2023/01/15 06:03:43;;;;;;;7.50;3.90;;;;;;;6.08;78.22;99435.60;104994;1263;99896;-74
2023/01/15 06:06:29;;;;;;;9.60;4.00;;;;;;;6.06;78.36;99425.68;105158;1263;99346;-75
2023/01/15 06:09:14;;;;;;;6.30;3.50;;;;;;;6.05;78.51;99418.19;105329;1262;97967;-74
2023/01/15 06:12:00;;;;;;;6.50;3.80;;;;;;;6.05;78.78;99408.17;105056;1267;99157;-75
2023/01/15 06:14:45;;;;;;;4.70;2.90;;;;;;;6.03;79.11;99405.90;105089;1272;101345;-76
2023/01/15 06:17:30;;;;;;;7.10;3.10;;;;;;;6.02;79.22;99405.85;105164;1261;100502;-75
2023/01/15 06:20:16;;;;;;;8.60;3.50;;;;;;;6.01;79.39;99414.59;105004;1264;98971;-75
2023/01/15 06:23:02;;;;;;;5.50;3.30;;;;;;;6.00;79.58;99423.95;105095;1258;97931;-76
2023/01/15 06:25:47;;;;;;;6.60;3.40;;;;;;;6.00;79.68;99427.99;105039;1263;99788;-75
2023/01/15 06:28:33;;;;;;;5.50;3.70;;;;;;;6.00;80.03;99421.69;105093;1263;101400;-74
2023/01/15 06:31:21;;;;;;;7.70;3.70;;;;;;;5.99;80.18;99408.14;104987;1259;99099;-74
2023/01/15 06:34:07;;;;;;;6.50;3.50;;;;;;;5.97;80.43;99401.63;105071;1264;99344;-74
2023/01/15 06:36:52;;;;;;;6.20;3.40;;;;;;;5.96;80.65;99409.45;105086;1257;98560;-76
2023/01/15 06:39:38;;;;;;;5.90;3.10;;;;;;;5.95;80.92;99407.23;105110;1263;98197;-76
2023/01/15 06:48:40;;;;;;;7.00;3.30;;;;;;;5.93;81.33;99400.02;105056;1258;97979;-74
2023/01/15 06:51:25;;;;;;;6.30;3.70;;;;;;;5.93;81.57;99399.45;104991;1264;97995;-75
2023/01/15 06:54:11;;;;;;;9.40;3.10;;;;;;;5.93;81.62;99397.39;105052;1263;98491;-75
2023/01/15 06:56:56;;;;;;;4.40;3.00;;;;;;;5.94;81.73;99394.27;104990;1262;102620;-74
2023/01/15 06:59:41;;;;;;;6.00;3.30;;;;;;;5.96;81.85;99395.80;105137;1263;99157;-75
2023/01/15 07:02:27;;;;;;;6.20;3.10;;;;;;;5.97;82.05;99395.28;105045;1259;97968;-75
2023/01/15 07:05:13;;;;;;;6.40;3.60;;;;;;;5.97;82.02;99396.64;105096;1259;97981;-74
2023/01/15 07:07:58;;;;;;;5.40;3.40;;;;;;;5.98;82.08;99394.40;105125;1258;99368;-75
2023/01/15 07:10:43;;;;;;;4.80;3.00;;;;;;;6.00;82.18;99387.30;105108;1263;103874;-75
2023/01/15 07:13:29;;;;;;;8.30;3.70;;;;;;;6.01;82.30;99381.54;105143;1258;101495;-76
2023/01/15 07:16:27;;;;;;;4.60;3.30;;;;;;;6.00;82.33;99376.70;105097;1257;98612;-75
2023/01/15 07:19:13;;;;;;;5.30;3.10;;;;;;;6.00;82.28;99370.04;105073;1258;97978;-76
2023/01/15 07:21:58;;;;;;;7.80;3.30;;;;;;;6.02;82.32;99368.77;105028;1264;98014;-76
2023/01/15 07:24:44;;;;;;;5.50;3.30;;;;;;;6.04;82.48;99366.45;105022;1262;101949;-76
2023/01/15 07:27:29;;;;;;;8.50;3.40;;;;;;;6.06;82.50;99368.98;105066;1259;99237;-75
2023/01/15 07:30:15;;;;;;;6.40;3.10;;;;;;;6.09;82.58;99366.83;105079;1258;99438;-75
2023/01/15 07:33:01;;;;;;;6.40;3.40;;;;;;;6.13;82.77;99367.45;105088;1262;99254;-75
2023/01/15 07:35:46;;;;;;;7.00;3.80;;;;;;;6.15;82.92;99362.16;105208;1263;97949;-76
2023/01/15 07:38:32;;;;;;;6.10;3.30;;;;;;;6.17;83.01;99359.77;105123;1262;102576;-74
2023/01/15 07:50:31;;;;;;;7.90;4.20;;;;;;;6.24;84.23;99361.22;105094;1258;98408;-75
2023/01/15 07:53:16;;;;;;;8.70;4.80;;;;;;;6.25;84.44;99361.70;105100;1262;101741;-76
2023/01/15 07:56:02;;;;;;;11.40;5.20;;;;;;;6.26;84.85;99364.98;105133;1264;99061;-75
2023/01/15 07:58:49;;;;;;;8.50;4.40;;;;;;;6.26;85.32;99360.88;105128;1264;97968;-75
2023/01/15 08:01:34;;;;;;;6.40;4.20;;;;;;;6.26;85.69;99359.61;105077;1258;98467;-75
2023/01/15 08:04:20;;;;;;;75.30;33.80;;;;;;;6.26;86.19;99359.79;105060;1259;99654;-75
2023/01/15 08:07:07;;;;;;;59.30;30.00;;;;;;;6.26;86.46;99359.08;105163;1259;101350;-75
2023/01/15 08:09:52;;;;;;;18.40;11.90;;;;;;;6.27;86.69;99355.63;105133;1258;100428;-75
2023/01/15 08:15:43;;;;;;;9.50;5.60;;;;;;;6.28;87.38;99354.30;105184;1257;97895;-76
2023/01/15 08:18:29;;;;;;;9.30;6.10;;;;;;;6.29;87.57;99353.75;105201;1262;99788;-76
2023/01/15 08:21:15;;;;;;;10.20;5.00;;;;;;;6.30;87.91;99348.11;105133;1258;101338;-75
2023/01/15 08:24:00;;;;;;;7.90;4.70;;;;;;;6.31;88.14;99345.38;105148;1257;99794;-75
2023/01/15 08:26:46;;;;;;;7.80;4.60;;;;;;;6.33;88.48;99345.31;105084;1263;97994;-76
2023/01/15 08:29:31;;;;;;;8.60;4.60;;;;;;;6.35;88.62;99340.34;105209;1258;96128;-75
2023/01/15 08:32:17;;;;;;;6.80;3.80;;;;;;;6.38;88.78;99334.36;105147;1261;98374;-76
2023/01/15 08:35:03;;;;;;;5.60;3.60;;;;;;;6.40;88.84;99329.30;105099;1261;101388;-75
2023/01/15 08:37:49;;;;;;;7.50;4.80;;;;;;;6.42;89.07;99331.73;105118;1261;99128;-76
2023/01/15 08:40:57;;;;;;;7.10;4.50;;;;;;;6.44;89.23;99333.43;105144;1256;99877;-75
2023/01/15 08:43:41;;;;;;;6.70;4.20;;;;;;;6.45;89.36;99333.98;105033;1258;97958;-75
2023/01/15 08:46:27;;;;;;;6.90;4.20;;;;;;;6.47;89.38;99335.17;105162;1261;98475;-75
2023/01/15 08:49:13;;;;;;;5.00;3.20;;;;;;;6.49;89.61;99331.75;105163;1261;102165;-76
2023/01/15 08:51:59;;;;;;;15.40;4.10;;;;;;;6.50;89.68;99328.33;104838;1259;116283;-75
2023/01/15 08:54:44;;;;;;;7.10;3.90;;;;;;;6.53;89.68;99326.77;105134;1263;99126;-76
2023/01/15 08:57:30;;;;;;;5.80;3.50;;;;;;;6.55;89.87;99325.50;105094;1258;99232;-76
2023/01/15 09:00:16;;;;;;;6.10;3.50;;;;;;;6.57;89.94;99325.59;105033;1258;98578;-74
2023/01/15 09:03:02;;;;;;;6.50;3.60;;;;;;;6.58;90.01;99325.41;105187;1259;101378;-74
2023/01/15 09:05:48;;;;;;;7.70;4.00;;;;;;;6.59;90.08;99325.83;105023;1264;99809;-75
2023/01/15 09:08:33;;;;;;;6.10;4.10;;;;;;;6.61;90.16;99325.59;105079;1258;98811;-75
2023/01/15 09:11:19;;;;;;;9.00;4.80;;;;;;;6.62;90.33;99332.52;105059;1262;97983;-76
2023/01/15 09:14:06;;;;;;;7.40;4.40;;;;;;;6.63;90.30;99332.54;105171;1262;98983;-75
2023/01/15 09:16:52;;;;;;;8.70;5.10;;;;;;;6.64;90.39;99331.36;105153;1261;102186;-76
2023/01/15 09:19:37;;;;;;;8.50;5.20;;;;;;;6.65;90.35;99335.75;105256;1262;100082;-76
2023/01/15 09:22:24;;;;;;;10.20;5.70;;;;;;;6.65;90.58;99333.21;105373;1266;98593;-76
2023/01/15 09:25:09;;;;;;;10.90;5.20;;;;;;;6.66;90.72;99329.73;105283;1265;97969;-76
2023/01/15 09:27:55;;;;;;;9.00;5.00;;;;;;;6.66;90.79;99325.63;105168;1262;99244;-76
2023/01/15 09:30:41;;;;;;;8.50;4.50;;;;;;;6.66;91.01;99325.34;105073;1261;101346;-76
2023/01/15 09:33:26;;;;;;;8.70;5.10;;;;;;;6.66;91.19;99325.23;105101;1261;99265;-73
2023/01/15 09:36:16;;;;;;;9.20;4.80;;;;;;;6.66;91.23;99324.21;105269;1259;98994;-74
2023/01/15 09:39:02;;;;;;;7.60;4.60;;;;;;;6.66;91.29;99324.86;105156;1259;97882;-77
2023/01/15 09:42:07;;;;;;;9.50;5.10;;;;;;;6.67;91.45;99322.83;105109;1264;98492;-76
2023/01/15 09:45:11;;;;;;;12.10;6.10;;;;;;;6.68;91.58;99315.30;105090;1259;101527;-75
2023/01/15 09:48:32;;;;;;;11.60;6.90;;;;;;;6.67;91.64;99310.01;105102;1259;99986;-74
2023/01/15 09:51:41;;;;;;;11.50;6.70;;;;;;;6.68;91.71;99304.86;105062;1261;99269;-75
2023/01/15 09:54:36;;;;;;;13.20;7.60;;;;;;;6.68;91.90;99299.67;105129;1258;97900;-76
2023/01/15 09:57:24;;;;;;;11.40;5.80;;;;;;;6.70;91.86;99302.46;105151;1257;98493;-76
2023/01/15 10:00:34;;;;;;;13.90;8.00;;;;;;;6.71;91.95;99299.86;105136;1257;101384;-76
2023/01/15 10:03:39;;;;;;;19.70;9.40;;;;;;;6.71;91.94;99295.34;105070;1263;99103;-74
2023/01/15 10:06:29;;;;;;;14.00;7.70;;;;;;;6.71;91.88;99297.36;105078;1262;98094;-75
2023/01/15 10:09:22;;;;;;;12.30;8.10;;;;;;;6.71;91.97;99293.99;105105;1264;97962;-75
2023/01/15 10:12:33;;;;;;;16.10;10.20;;;;;;;6.71;92.04;99292.40;104918;1264;97912;-75
2023/01/15 10:15:38;;;;;;;17.50;10.40;;;;;;;6.71;92.03;99286.38;105125;1258;102599;-74
2023/01/15 10:18:27;;;;;;;9.00;5.60;;;;;;;6.72;92.06;99284.30;105104;1256;99116;-77
2023/01/15 10:21:29;;;;;;;11.10;7.30;;;;;;;6.71;92.24;99282.09;105072;1259;98977;-75
2023/01/15 10:24:21;;;;;;;11.00;7.40;;;;;;;6.71;92.16;99278.70;105134;1270;97962;-75
2023/01/15 10:27:17;;;;;;;11.80;7.60;;;;;;;6.71;92.34;99275.30;105094;1259;97984;-76
2023/01/15 10:30:28;;;;;;;10.60;6.70;;;;;;;6.73;92.59;99273.00;104968;1259;101828;-75
2023/01/15 10:33:29;;;;;;;;;;;;;;;6.72;92.55;99270.92;105107;1261;100085;-75
2023/01/15 10:36:21;;;;;;;10.90;5.70;;;;;;;6.70;92.36;99268.89;105002;1258;100133;-76
2023/01/15 10:39:06;;;;;;;17.20;8.60;;;;;;;6.70;92.71;99265.25;106356;1260;98039;-75
2023/01/15 10:41:58;;;;;;;10.70;6.50;;;;;;;6.70;92.70;99264.35;105245;1258;98489;-75
2023/01/15 10:45:26;;;;;;;9.40;5.60;;;;;;;6.69;92.81;99262.95;105131;1261;102578;-75
2023/01/15 10:48:24;;;;;;;20.70;11.70;;;;;;;6.70;92.91;99259.02;105728;1261;100322;-75
2023/01/15 10:51:36;;;;;;;20.20;11.50;;;;;;;6.69;92.87;99253.73;105032;1259;98359;-75
2023/01/15 10:54:40;;;;;;;16.70;10.10;;;;;;;6.69;92.87;99252.02;105068;1261;97938;-75
2023/01/15 10:57:40;;;;;;;21.70;12.60;;;;;;;6.69;92.79;99245.59;105057;1259;97887;-76
2023/01/15 11:19:35;;;;;;;8.90;5.70;;;;;;;6.93;92.15;99233.90;103315;1280;639775;-76
2023/01/15 11:22:21;;;;;;;8.40;5.70;;;;;;;6.99;91.61;99234.77;104761;1264;95899;-76
2023/01/15 11:25:09;;;;;;;12.00;6.90;;;;;;;6.94;91.87;99233.96;104820;1264;95894;-75
2023/01/15 11:27:57;;;;;;;9.40;7.10;;;;;;;6.90;91.95;99230.78;104836;1264;97257;-75
2023/01/15 11:30:53;;;;;;;10.90;6.10;;;;;;;6.86;92.06;99227.92;104828;1266;100273;-76
2023/01/15 11:33:39;;;;;;;9.30;6.40;;;;;;;6.84;92.07;99228.04;105677;1256;99345;-75
2023/01/15 11:36:27;;;;;;;11.10;6.10;;;;;;;6.82;92.18;99227.05;105863;1258;95967;-75
2023/01/15 11:39:27;;;;;;;11.20;6.40;;;;;;;6.81;92.27;99223.32;105608;1256;98254;-75
2023/01/15 11:51:40;;;;;;;9.50;6.20;;;;;;;6.79;92.39;99221.63;105599;1256;96283;-76
2023/01/15 11:54:26;;;;;;;10.10;5.50;;;;;;;6.79;92.36;99223.34;105722;1257;95895;-76
2023/01/15 11:57:27;;;;;;;9.70;5.30;;;;;;;6.80;92.47;99232.16;105527;1254;99874;-77
2023/01/15 12:00:24;;;;;;;9.80;5.40;;;;;;;6.80;92.60;99227.54;105695;1254;100506;-77
2023/01/15 12:03:22;;;;;;;9.00;6.20;;;;;;;6.80;92.59;99223.93;105565;1251;98437;-76
2023/01/15 12:06:12;;;;;;;10.50;5.70;;;;;;;6.81;92.43;99216.89;105786;1251;95912;-77
2023/01/15 12:09:13;;;;;;;9.50;6.10;;;;;;;6.81;92.34;99217.42;105656;1253;96322;-76
2023/01/15 12:12:17;;;;;;;10.50;6.50;;;;;;;6.81;92.29;99212.13;105646;1250;99268;-77
2023/01/15 12:15:23;;;;;;;10.90;6.70;;;;;;;6.82;92.49;99214.77;105821;1251;99078;-77
2023/01/15 12:18:35;;;;;;;11.90;5.70;;;;;;;6.83;92.37;99217.92;105751;1251;97695;-75
2023/01/15 12:21:40;;;;;;;10.20;5.10;;;;;;;6.83;92.38;99215.98;105422;1254;95869;-76
2023/01/15 12:24:45;;;;;;;8.50;5.10;;;;;;;6.82;92.20;99216.57;106119;1251;97015;-77
2023/01/15 12:27:58;;;;;;;10.80;5.20;;;;;;;6.83;92.24;99214.20;105682;1256;99875;-76
2023/01/15 12:31:02;;;;;;;9.50;5.60;;;;;;;6.83;92.12;99214.92;105553;1251;99167;-75
2023/01/15 12:34:11;;;;;;;11.80;6.50;;;;;;;6.83;92.08;99214.93;105996;1256;98327;-74
2023/01/15 12:37:02;;;;;;;8.50;4.90;;;;;;;6.83;92.04;99217.35;105887;1256;95886;-75
2023/01/15 12:40:16;;;;;;;9.30;6.10;;;;;;;6.84;91.93;99222.31;105565;1252;95911;-75
2023/01/15 12:46:09;;;;;;;10.10;6.30;;;;;;;6.87;91.70;99220.36;105693;1256;99173;-75
2023/01/15 12:49:03;;;;;;;10.10;6.50;;;;;;;6.89;91.51;99220.83;105892;1256;97718;-78
2023/01/15 12:52:23;;;;;;;9.50;6.10;;;;;;;6.91;91.20;99220.45;105803;1257;95898;-77
2023/01/15 12:55:17;;;;;;;10.00;6.30;;;;;;;6.93;91.15;99218.58;105700;1256;96811;-76
2023/01/15 12:58:13;;;;;;;9.40;5.50;;;;;;;6.95;91.07;99226.63;105777;1256;100011;-76
2023/01/15 13:01:29;;;;;;;9.40;6.10;;;;;;;6.97;90.86;99230.08;106345;1255;100296;-76
2023/01/15 13:04:33;;;;;;;11.90;5.80;;;;;;;6.99;90.84;99226.20;105894;1251;97753;-77
2023/01/15 13:07:40;;;;;;;12.10;6.50;;;;;;;7.02;90.68;99222.66;105948;1254;96132;-75
2023/01/15 13:10:33;;;;;;;13.10;7.20;;;;;;;7.05;90.58;99216.86;105753;1256;96892;-75
2023/01/15 13:13:35;;;;;;;10.40;6.10;;;;;;;7.07;90.22;99219.36;105675;1251;99808;-75
2023/01/15 13:16:35;;;;;;;10.10;5.50;;;;;;;7.09;90.01;99221.58;105714;1251;99042;-75
2023/01/15 13:19:45;;;;;;;8.80;5.70;;;;;;;7.11;89.87;99220.90;105700;1251;97740;-77
2023/01/15 13:22:36;;;;;;;10.20;5.50;;;;;;;7.12;89.72;99225.69;105688;1256;95937;-75
2023/01/15 13:25:48;;;;;;;10.50;5.70;;;;;;;7.14;89.53;99223.33;105606;1251;95889;-76
2023/01/15 13:28:51;;;;;;;13.60;5.80;;;;;;;7.17;89.64;99222.85;105683;1256;98653;-76
2023/01/15 13:31:46;;;;;;;9.50;5.80;;;;;;;7.20;89.38;99220.77;105638;1251;100536;-76
2023/01/15 13:34:35;;;;;;;12.40;6.30;;;;;;;7.21;89.29;99221.66;105614;1251;97701;-75
2023/01/15 13:37:32;;;;;;;10.30;5.60;;;;;;;7.23;89.24;99221.76;105567;1256;97247;-76
2023/01/15 13:40:28;;;;;;;11.90;6.20;;;;;;;7.24;89.07;99220.38;105610;1256;95885;-76
2023/01/15 13:43:23;;;;;;;8.90;5.20;;;;;;;7.25;88.78;99225.42;105660;1256;99405;-76
2023/01/15 13:46:19;;;;;;;10.90;5.70;;;;;;;7.26;88.85;99229.16;105580;1256;99072;-76
2023/01/15 13:49:13;;;;;;;9.70;5.40;;;;;;;7.26;88.50;99235.50;105642;1251;98886;-76
2023/01/15 13:52:03;;;;;;;9.50;5.60;;;;;;;7.27;88.57;99239.89;105654;1257;95908;-76
2023/01/15 13:54:48;;;;;;;8.60;5.50;;;;;;;7.29;88.46;99242.98;106195;1257;95982;-75
2023/01/15 13:57:39;;;;;;;10.50;5.60;;;;;;;7.30;88.16;99244.66;105571;1254;99187;-75
2023/01/15 14:00:26;;;;;;;12.30;6.40;;;;;;;7.30;88.12;99250.15;105621;1251;100279;-76
2023/01/15 14:03:28;;;;;;;10.90;5.60;;;;;;;7.31;88.19;99255.64;106151;1255;97719;-75
2023/01/15 14:06:14;;;;;;;9.50;5.50;;;;;;;7.32;88.20;99259.33;105664;1251;95907;-76
2023/01/15 14:08:59;;;;;;;12.50;6.00;;;;;;;7.31;88.09;99267.70;105632;1251;95871;-76
2023/01/15 14:11:53;;;;;;;13.50;6.90;;;;;;;7.32;88.05;99272.83;105731;1255;98625;-75
2023/01/15 14:15:09;;;;;;;11.50;5.70;;;;;;;7.32;88.01;99276.09;105579;1251;100578;-76
2023/01/15 14:18:32;;;;;;;11.10;6.00;;;;;;;7.31;87.85;99282.85;105634;1256;97755;-75
2023/01/15 14:21:36;;;;;;;12.30;5.60;;;;;;;7.30;87.97;99291.89;105642;1251;95898;-75